Ana Sayfa
METAR-TAF:

METAR-TAF

Havaalanları :

Chanute, Kansas, Amerika Birleşik Devletleri

Enlem: 37-40-13N, Boylam: 095-29-03W, yükseklik: 305 m

Güncel hava durumu gözlemi

Rapor saat 06:52 UTC de 40 dakika önce yapıldı.
Rüzgar batı/kuzeybatıdan 5 kt
Sıcaklık 19°C
Nem 83%
Basınç 1009 hPa
Görüş mesafesi: 16.1 km
Açık gökyüzü

METAR: KCNU 270652Z AUTO 30005KT 10SM CLR 19/16 A2981 RMK AO2 SLP083 T01890161 $

Saat: 02:32 (07:32 UTC)

Tahmin

Rapor saat 05:20 UTC de 2 saat ve 12 dakika önce yapıldı.
Ayın 27'si saat 06 UTC'den ayın 28'si saat 06 UTC'ye kadar geçerli Tahmin
Rüzgar batı/kuzeybatıdan 4 kt
Görüş mesafesi: 10 km
Açık gökyüzü
Ayın 27'si saat 1800 UTC'den
Rüzgar batı/kuzeybatıdan 4 kt
Görüş mesafesi: 10 km
4000 ft yükseklikte az bulutlu

TAF: KCNU 270520Z 2706/2806 30004KT P6SM SKC FM271800 29004KT P6SM FEW040

4.000'den fazla havaalanı için hava durumu gözlemleri ve tahminleri (METAR ve TAF raporları).

Kullanılabilir istasyonlar harita üzerinde sarı ve kırmızı noktalarla gösterilir.

İstasyonun adını görmek için fareyi noktanın üzerinde gezdirin.

Sonrasında hava gözlem ve tahminlerini görmek için tıklayın.

Haritayı değiştirmek için: yaklaştırmak için siyah artı işaretli yeşil düğmeye ve uzaklaştırmak için de eksi işaretli düğmeye hızla tıklayın; bitişik haritalar için yeşil okları kullanın.


METAR-TAF: